Time;durP1;ratioP1;P1;durP2;ratioP2;P2;SDS_P1;SDS_P2;PMS_P1;PMS_P2;Temp;Humidity;BMP_temperature;BMP_pressure;BME280_temperature;BME280_humidity;BME280_pressure;Samples;Min_cycle;Max_cycle;Signal;HPM_P1;HPM_P2
2022/12/17 13:06:36;;;;;;;51.88;22.20;;;1.90;96.00;;;;;;6157807;23;20044;-77
2022/12/17 13:09:21;;;;;;;64.50;19.67;;;1.80;95.60;;;;;;6179420;23;20052;-79
2022/12/17 13:12:08;;;;;;;56.60;19.60;;;1.50;95.50;;;;;;6178584;23;20028;-79
2022/12/17 13:14:45;;;;;;;56.03;20.15;;;1.80;95.80;;;;;;6130358;23;20309;-79
2022/12/17 13:17:18;;;;;;;63.03;18.23;;;1.80;95.80;;;;;;6152490;23;20468;-79
2022/12/17 13:19:57;;;;;;;64.82;26.23;;;1.80;96.00;;;;;;6178622;23;20068;-79
2022/12/17 13:22:28;;;;;;;58.42;24.55;;;1.70;95.20;;;;;;6184009;23;20021;-78
2022/12/17 13:25:17;;;;;;;62.08;21.45;;;1.60;95.20;;;;;;6154854;23;20452;-79
2022/12/17 13:27:45;;;;;;;54.97;20.65;;;0.60;95.30;;;;;;6155195;23;20028;-78
2022/12/17 13:30:33;;;;;;;52.70;17.63;;;1.80;95.70;;;;;;6155782;23;20029;-78
2022/12/17 13:33:22;;;;;;;55.78;20.08;;;1.70;95.60;;;;;;6152155;23;20602;-78
2022/12/17 13:36:03;;;;;;;63.55;20.85;;;1.70;96.20;;;;;;6157662;23;20401;-78
2022/12/17 13:39:00;;;;;;;55.55;19.17;;;1.60;95.60;;;;;;6133709;23;20021;-79
2022/12/17 13:41:31;;;;;;;59.00;20.92;;;1.70;95.60;;;;;;6184622;23;20267;-79
2022/12/17 13:44:21;;;;;;;61.65;22.17;;;1.70;95.30;;;;;;6130555;23;20044;-79
2022/12/17 13:46:50;;;;;;;47.15;16.95;;;1.70;94.80;;;;;;6070967;23;20022;-78
2022/12/17 13:49:28;;;;;;;55.70;19.25;;;1.70;95.30;;;;;;6093772;23;20065;-79
2022/12/17 13:52:20;;;;;;;66.32;27.42;;;1.50;95.70;;;;;;6078543;23;20023;-79
2022/12/17 13:54:47;;;;;;;56.42;19.77;;;1.90;94.80;;;;;;6075633;23;20022;-77
2022/12/17 13:57:18;;;;;;;59.33;20.15;;;1.50;95.10;;;;;;6074244;23;20026;-79
2022/12/17 13:59:54;;;;;;;56.00;20.58;;;1.50;95.20;;;;;;6070268;23;20105;-78
2022/12/17 14:02:26;;;;;;;49.78;19.65;;;1.30;95.10;;;;;;6064905;23;20061;-78
2022/12/17 14:04:56;;;;;;;57.65;19.45;;;1.40;95.30;;;;;;6094506;23;20022;-78
2022/12/17 14:07:28;;;;;;;64.00;22.67;;;1.40;95.50;;;;;;6098042;23;20113;-79
2022/12/17 14:09:56;;;;;;;56.42;19.38;;;1.30;95.20;;;;;;6071082;23;20117;-79
2022/12/17 14:12:25;;;;;;;55.42;16.70;;;1.30;95.60;;;;;;6068410;23;20058;-78
2022/12/17 14:15:02;;;;;;;50.25;19.08;;;1.30;95.80;;;;;;6068792;23;20026;-79
2022/12/17 14:17:37;;;;;;;56.03;21.52;;;1.40;95.90;;;;;;6095775;23;20457;-79
2022/12/17 14:20:13;;;;;;;52.65;20.75;;;1.30;96.00;;;;;;6153120;23;20026;-79
2022/12/17 14:22:44;;;;;;;52.60;19.58;;;1.30;96.10;;;;;;6154668;23;20021;-78
2022/12/17 14:25:20;;;;;;;48.78;16.23;;;1.30;96.40;;;;;;6153285;23;20056;-77
2022/12/17 14:28:18;;;;;;;61.85;22.50;;;1.30;96.40;;;;;;6131172;23;20018;-79
2022/12/17 14:30:47;;;;;;;55.13;18.38;;;1.20;96.70;;;;;;6152222;23;20437;-77
2022/12/17 14:33:36;;;;;;;64.85;22.48;;;1.20;96.80;;;;;;6172742;23;20096;-78
2022/12/17 14:36:20;;;;;;;52.92;20.65;;;1.50;97.50;;;;;;6156772;23;20471;-79
2022/12/17 14:38:59;;;;;;;55.13;21.90;;;0.80;96.60;;;;;;6132957;23;20068;-78
2022/12/17 14:44:27;;;;;;;52.10;18.50;;;0.60;96.70;;;;;;6161432;23;20104;-79
2022/12/17 14:47:11;;;;;;;69.25;24.92;;;0.90;96.90;;;;;;6157223;23;20417;-79
2022/12/17 14:50:10;;;;;;;71.93;27.10;;;0.70;97.20;;;;;;6134040;23;20061;-79
2022/12/17 14:52:44;;;;;;;66.28;25.40;;;0.30;97.20;;;;;;6136294;23;20021;-79
2022/12/17 14:55:35;;;;;;;64.55;24.27;;;0.60;97.40;;;;;;6126496;23;20033;-78
2022/12/17 14:58:12;;;;;;;60.17;20.52;;;0.70;97.70;;;;;;6156087;23;20025;-78
2022/12/17 15:00:52;;;;;;;72.40;28.25;;;0.40;97.50;;;;;;6153341;23;20025;-78
2022/12/17 15:03:28;;;;;;;69.13;27.10;;;0.50;97.80;;;;;;6128980;23;20483;-78
2022/12/17 15:06:17;;;;;;;77.57;25.88;;;0.70;98.10;;;;;;6153579;23;20064;-79
2022/12/17 15:08:47;;;;;;;83.65;32.45;;;0.60;98.00;;;;;;6181623;23;20080;-78
2022/12/17 15:11:19;;;;;;;56.40;21.95;;;0.50;97.60;;;;;;6130628;23;20026;-78
2022/12/17 15:13:49;;;;;;;70.15;23.77;;;0.30;97.80;;;;;;6156696;23;20027;-79
2022/12/17 15:16:23;;;;;;;67.07;25.13;;;0.50;97.90;;;;;;6153984;23;20021;-79
2022/12/17 15:18:53;;;;;;;61.92;22.63;;;0.40;98.40;;;;;;6157949;23;20084;-79
2022/12/17 15:21:24;;;;;;;57.42;21.77;;;0.40;98.40;;;;;;6133712;23;20100;-76
2022/12/17 15:23:52;;;;;;;51.30;18.17;;;0.50;97.90;;;;;;6157186;23;20021;-79
2022/12/17 15:26:20;;;;;;;58.22;21.90;;;0.40;98.30;;;;;;6131561;23;20426;-76
2022/12/17 15:28:48;;;;;;;61.25;21.80;;;0.40;98.80;;;;;;6150200;23;20014;-77
2022/12/17 15:31:15;;;;;;;61.88;22.48;;;0.40;99.00;;;;;;6126391;23;20021;-76
2022/12/17 15:33:47;;;;;;;58.92;21.45;;;0.40;98.90;;;;;;6152078;23;20021;-77
2022/12/17 15:36:15;;;;;;;55.47;17.83;;;0.40;98.90;;;;;;6126907;23;20060;-77
2022/12/17 15:38:42;;;;;;;60.17;25.70;;;0.10;99.20;;;;;;6126654;23;20104;-77
2022/12/17 15:43:56;;;;;;;71.25;27.50;;;0.30;99.00;;;;;;6153370;23;20456;-76
2022/12/17 15:46:24;;;;;;;78.97;26.85;;;0.50;99.20;;;;;;6153119;23;20390;-77
2022/12/17 15:48:51;;;;;;;60.38;20.25;;;0.40;99.00;;;;;;6127983;23;20021;-76
2022/12/17 15:51:19;;;;;;;49.55;16.17;;;0.30;99.00;;;;;;6177106;23;20080;-76
2022/12/17 15:53:47;;;;;;;53.38;19.42;;;0.20;99.20;;;;;;6129336;23;20100;-76
2022/12/17 15:56:23;;;;;;;56.15;18.92;;;0.40;99.10;;;;;;6152349;23;20021;-76
2022/12/17 15:58:50;;;;;;;63.38;20.10;;;0.50;99.60;;;;;;6151425;23;20021;-76
2022/12/17 16:01:19;;;;;;;59.47;20.08;;;0.50;99.10;;;;;;6177253;23;20021;-75
2022/12/17 16:03:47;;;;;;;63.50;22.00;;;0.40;98.40;;;;;;6154633;23;20072;-76
2022/12/17 16:06:15;;;;;;;54.97;18.27;;;0.30;98.70;;;;;;6176761;23;20479;-76
2022/12/17 16:08:43;;;;;;;59.22;18.42;;;0.30;98.70;;;;;;6151991;23;20018;-75
2022/12/17 16:11:13;;;;;;;55.17;19.25;;;0.30;98.80;;;;;;6177284;23;20095;-76
2022/12/17 16:13:40;;;;;;;57.13;18.88;;;0.30;98.90;;;;;;6152485;23;20025;-76
2022/12/17 16:16:08;;;;;;;58.92;17.38;;;0.20;98.90;;;;;;6152691;23;20039;-76
2022/12/17 16:18:37;;;;;;;46.85;16.92;;;0.30;99.20;;;;;;6151468;23;20025;-75
2022/12/17 16:21:07;;;;;;;51.60;17.50;;;0.30;99.40;;;;;;6152627;23;20055;-75
2022/12/17 16:23:35;;;;;;;51.42;17.75;;;0.30;99.50;;;;;;6177273;23;20025;-75
2022/12/17 16:26:05;;;;;;;51.05;16.20;;;0.40;99.90;;;;;;6151397;23;20076;-75
2022/12/17 16:28:34;;;;;;;44.40;14.65;;;0.30;99.30;;;;;;6152502;23;20322;-75
2022/12/17 16:31:10;;;;;;;53.30;14.73;;;0.30;99.30;;;;;;6151549;23;20038;-76
2022/12/17 16:33:57;;;;;;;43.30;13.50;;;0.20;99.00;;;;;;6121572;23;20096;-76
2022/12/17 16:36:25;;;;;;;49.45;15.02;;;0.30;99.90;;;;;;6120399;23;20026;-76
2022/12/17 16:38:55;;;;;;;50.80;17.42;;;0.30;99.90;;;;;;6097133;23;20022;-76
2022/12/17 16:41:23;;;;;;;43.60;14.15;;;0.40;99.90;;;;;;6094681;23;20026;-75
2022/12/17 16:43:50;;;;;;;75.03;24.50;;;0.30;99.90;;;;;;6122042;23;20095;-75
2022/12/17 16:46:32;;;;;;;52.00;16.27;;;0.30;99.90;;;;;;6122530;23;20381;-75
2022/12/17 16:49:13;;;;;;;66.72;21.35;;;0.20;99.90;;;;;;6122690;23;20048;-75
2022/12/17 16:51:42;;;;;;;47.42;14.18;;;0.20;99.90;;;;;;6122887;23;20069;-76
2022/12/17 16:54:15;;;;;;;53.72;15.63;;;0.20;99.90;;;;;;6123336;23;20022;-75
2022/12/17 16:56:44;;;;;;;64.57;25.35;;;0.20;99.90;;;;;;6121609;23;20022;-75
2022/12/17 16:59:15;;;;;;;42.13;15.05;;;0.20;99.90;;;;;;6121059;23;20681;-75
2022/12/17 17:01:46;;;;;;;48.03;13.10;;;0.20;99.90;;;;;;6123024;23;20050;-75
2022/12/17 17:04:15;;;;;;;41.22;12.77;;;0.10;99.80;;;;;;6099656;23;20018;-76
2022/12/17 17:06:46;;;;;;;50.60;16.73;;;0.10;99.90;;;;;;6121595;23;20022;-75
2022/12/17 17:09:15;;;;;;;41.65;12.07;;;0.20;99.90;;;;;;6120879;23;20040;-75
2022/12/17 17:11:42;;;;;;;46.55;17.90;;;0.10;99.60;;;;;;6114773;23;20492;-76
2022/12/17 17:14:15;;;;;;;50.45;17.98;;;0.10;99.90;;;;;;6130088;23;20029;-76
2022/12/17 17:16:42;;;;;;;46.75;15.38;;;0.00;99.90;;;;;;6154068;23;20029;-76
2022/12/17 17:19:09;;;;;;;57.28;26.15;;;0.00;99.90;;;;;;6155035;23;20021;-77
2022/12/17 17:21:39;;;;;;;35.85;11.90;;;0.00;99.90;;;;;;6179223;23;20029;-75
2022/12/17 17:24:12;;;;;;;43.38;12.95;;;0.10;99.90;;;;;;6154074;23;20022;-75
2022/12/17 17:26:47;;;;;;;40.05;12.88;;;0.00;99.90;;;;;;6153673;23;20029;-76
2022/12/17 17:29:14;;;;;;;33.28;13.00;;;0.00;99.90;;;;;;6152842;23;20014;-76
2022/12/17 17:31:42;;;;;;;42.17;14.25;;;0.00;99.90;;;;;;6180126;23;20013;-76
2022/12/17 17:34:29;;;;;;;33.85;11.73;;;0.00;99.90;;;;;;6180362;23;20449;-76
2022/12/17 17:36:56;;;;;;;51.42;15.25;;;0.00;99.90;;;;;;6129773;23;20021;-76
2022/12/17 17:39:23;;;;;;;51.33;14.73;;;-0.10;99.90;;;;;;6129345;23;20076;-76
2022/12/17 17:41:50;;;;;;;46.28;14.48;;;-0.10;99.90;;;;;;6150235;23;20022;-76
2022/12/17 17:44:18;;;;;;;53.00;15.55;;;-0.10;99.90;;;;;;6154541;23;20025;-76
2022/12/17 17:46:45;;;;;;;50.67;15.43;;;0.00;99.90;;;;;;6177795;23;20092;-76
2022/12/17 17:49:13;;;;;;;45.72;16.02;;;0.00;99.90;;;;;;6156400;23;20021;-76
2022/12/17 17:51:42;;;;;;;47.05;14.98;;;0.00;99.90;;;;;;6134500;23;20025;-76
2022/12/17 17:54:29;;;;;;;55.10;18.40;;;-0.10;99.90;;;;;;6185362;23;20452;-76
2022/12/17 17:56:57;;;;;;;51.38;17.55;;;0.00;99.90;;;;;;6156972;23;20021;-76
2022/12/17 17:59:24;;;;;;;50.03;16.52;;;-0.10;99.90;;;;;;6157502;23;20029;-76
2022/12/17 18:02:00;;;;;;;52.10;17.58;;;-0.10;99.90;;;;;;6179975;23;20415;-76
2022/12/17 18:04:27;;;;;;;55.28;16.70;;;-0.10;99.90;;;;;;6159010;23;20647;-76
2022/12/17 18:06:54;;;;;;;53.85;19.27;;;-0.10;99.90;;;;;;6157615;23;20357;-76
2022/12/17 18:09:42;;;;;;;52.65;17.35;;;-0.10;99.90;;;;;;6183633;23;20017;-76
2022/12/17 18:14:55;;;;;;;62.88;19.80;;;-0.20;99.90;;;;;;6157696;23;20032;-76
2022/12/17 18:17:48;;;;;;;73.47;24.00;;;-0.20;99.90;;;;;;6158518;23;20100;-76
2022/12/17 18:20:16;;;;;;;56.15;21.08;;;-0.20;99.90;;;;;;6157629;23;20032;-76
2022/12/17 18:22:44;;;;;;;47.28;17.92;;;-0.20;99.90;;;;;;6133166;23;20017;-77
2022/12/17 18:25:14;;;;;;;57.65;20.50;;;-0.30;99.90;;;;;;6132350;23;20455;-77
2022/12/17 18:27:42;;;;;;;54.10;19.17;;;-0.30;99.90;;;;;;6159558;23;20020;-76
2022/12/17 18:30:10;;;;;;;46.05;16.60;;;-0.20;99.90;;;;;;6179214;23;20029;-77
2022/12/17 18:32:38;;;;;;;47.28;16.00;;;-0.30;99.90;;;;;;6133208;23;20048;-78
2022/12/17 18:35:06;;;;;;;54.63;18.85;;;-0.30;99.90;;;;;;6158093;23;20021;-77
2022/12/17 18:37:34;;;;;;;53.53;19.02;;;-0.30;99.90;;;;;;6159166;23;20020;-76
2022/12/17 18:40:02;;;;;;;43.90;15.48;;;-0.30;99.90;;;;;;6182014;23;20100;-77
2022/12/17 18:45:16;;;;;;;53.75;18.20;;;-0.30;99.90;;;;;;6183211;23;20048;-77
2022/12/17 18:47:44;;;;;;;58.47;17.85;;;-0.30;99.90;;;;;;6127997;23;20140;-77
2022/12/17 18:50:12;;;;;;;48.92;15.75;;;-0.30;99.90;;;;;;6125833;23;20029;-77
2022/12/17 18:52:42;;;;;;;52.35;18.15;;;-0.30;99.90;;;;;;6125750;23;20017;-75
2022/12/17 18:55:09;;;;;;;42.38;14.48;;;-0.30;99.90;;;;;;6128105;23;20026;-76
2022/12/17 18:57:37;;;;;;;50.50;21.52;;;-0.30;99.90;;;;;;6127015;23;20856;-76
2022/12/17 19:00:06;;;;;;;53.03;17.42;;;-0.60;99.90;;;;;;6126660;23;20566;-76
2022/12/17 19:02:33;;;;;;;46.85;16.42;;;-0.30;99.90;;;;;;6128110;23;20025;-77
2022/12/17 19:05:01;;;;;;;55.00;18.60;;;-0.30;99.90;;;;;;6126730;23;20104;-78
2022/12/17 19:07:28;;;;;;;47.42;17.02;;;-0.30;99.90;;;;;;6153131;23;20465;-76
2022/12/17 19:09:56;;;;;;;62.35;21.13;;;-0.30;99.90;;;;;;6128759;23;20048;-77
2022/12/17 19:12:23;;;;;;;51.55;18.75;;;-0.30;99.90;;;;;;6126755;23;20128;-78
2022/12/17 19:14:50;;;;;;;51.40;20.65;;;-0.30;99.90;;;;;;6102564;23;20025;-77
2022/12/17 19:17:18;;;;;;;59.25;20.50;;;-0.30;99.90;;;;;;6104306;23;20048;-76
2022/12/17 19:19:46;;;;;;;53.83;16.95;;;-0.30;99.90;;;;;;6154784;23;20021;-76
2022/12/17 19:22:13;;;;;;;53.35;19.77;;;-0.40;99.90;;;;;;6182847;23;20029;-77
2022/12/17 19:24:41;;;;;;;57.38;18.10;;;-0.40;99.90;;;;;;6155766;23;20536;-77
2022/12/17 19:27:08;;;;;;;43.13;13.70;;;-0.40;99.90;;;;;;6158442;23;20053;-77
2022/12/17 19:29:36;;;;;;;44.40;15.25;;;-0.40;99.90;;;;;;6156918;23;20024;-76
2022/12/17 19:32:04;;;;;;;47.15;16.15;;;-0.40;99.90;;;;;;6183331;23;20020;-76
2022/12/17 19:34:33;;;;;;;50.40;17.80;;;-0.40;99.90;;;;;;6182639;23;20049;-76
2022/12/17 19:37:01;;;;;;;59.20;21.95;;;-0.40;99.90;;;;;;6183824;23;20495;-76
2022/12/17 19:39:28;;;;;;;49.20;18.60;;;-0.40;99.90;;;;;;6155285;23;20031;-76
2022/12/17 19:41:57;;;;;;;68.60;23.42;;;-0.20;99.90;;;;;;6181843;23;20029;-76
2022/12/17 19:44:25;;;;;;;44.53;17.20;;;-0.50;99.90;;;;;;6183945;23;20775;-76
2022/12/17 19:46:53;;;;;;;51.30;15.57;;;-0.30;99.90;;;;;;6157585;23;20020;-76
2022/12/17 19:49:20;;;;;;;41.42;13.80;;;-0.50;99.90;;;;;;6151950;23;20030;-76
2022/12/17 19:51:54;;;;;;;44.80;13.57;;;-0.50;99.90;;;;;;6177389;23;20021;-76
2022/12/17 19:54:23;;;;;;;42.20;13.68;;;-0.40;99.90;;;;;;6178141;23;20449;-76
2022/12/17 19:56:51;;;;;;;41.65;13.77;;;-0.40;99.90;;;;;;6177397;23;20092;-76
2022/12/17 19:59:18;;;;;;;44.92;13.80;;;-0.50;99.90;;;;;;6152954;23;20018;-76
2022/12/17 20:01:47;;;;;;;47.38;15.18;;;-0.50;99.90;;;;;;6177231;23;20108;-76
2022/12/17 20:04:15;;;;;;;55.13;15.68;;;-0.50;99.90;;;;;;6154179;23;20099;-76
2022/12/17 20:06:44;;;;;;;51.75;17.50;;;-0.50;99.90;;;;;;6178022;23;20025;-76
2022/12/17 20:09:12;;;;;;;46.97;16.30;;;-0.60;99.90;;;;;;6153441;23;20029;-76
2022/12/17 20:11:40;;;;;;;42.60;13.98;;;-0.60;99.90;;;;;;6130416;23;20464;-76
2022/12/17 20:14:14;;;;;;;44.70;17.60;;;-0.60;99.90;;;;;;6153146;23;20028;-76
2022/12/17 20:16:50;;;;;;;38.88;13.90;;;-0.50;99.90;;;;;;6153557;23;20052;-76
2022/12/17 20:19:20;;;;;;;45.85;15.52;;;-0.60;99.90;;;;;;6178961;23;20447;-76
2022/12/17 20:21:49;;;;;;;41.25;13.27;;;-0.50;99.90;;;;;;6153164;23;20076;-76
2022/12/17 20:24:17;;;;;;;45.83;14.70;;;-0.60;99.90;;;;;;6155041;23;20508;-77
2022/12/17 20:26:47;;;;;;;57.17;18.00;;;-0.60;99.90;;;;;;6129119;23;20104;-77
2022/12/17 20:29:17;;;;;;;48.92;14.73;;;-0.60;99.90;;;;;;6152186;23;20020;-76
2022/12/17 20:31:46;;;;;;;44.28;15.65;;;-0.60;99.90;;;;;;6154176;23;20048;-76
2022/12/17 20:34:18;;;;;;;44.42;14.60;;;-0.60;99.90;;;;;;6156468;23;20114;-76
2022/12/17 20:36:48;;;;;;;43.70;13.48;;;-0.60;99.90;;;;;;6179232;23;20021;-76
2022/12/17 20:39:15;;;;;;;34.13;10.77;;;-0.60;99.90;;;;;;6177377;23;20032;-76
2022/12/17 20:41:50;;;;;;;24.80;8.45;;;-0.60;99.90;;;;;;6178076;23;20033;-76
2022/12/17 20:44:18;;;;;;;42.85;13.43;;;-0.60;99.90;;;;;;6152640;23;20026;-75
2022/12/17 20:46:45;;;;;;;41.03;14.82;;;-0.70;99.90;;;;;;6150969;23;20069;-76
2022/12/17 20:49:13;;;;;;;50.20;16.27;;;-0.60;99.90;;;;;;6128545;23;20018;-76
2022/12/17 20:51:41;;;;;;;36.65;12.88;;;-0.70;99.90;;;;;;6180933;23;20048;-76
2022/12/17 20:54:09;;;;;;;36.38;11.60;;;-0.70;99.90;;;;;;6159722;23;20016;-76
2022/12/17 20:56:38;;;;;;;36.67;12.73;;;-0.70;99.90;;;;;;6130962;23;20024;-76
2022/12/17 20:59:07;;;;;;;40.10;12.80;;;-0.70;99.90;;;;;;6131491;23;20099;-76
2022/12/17 21:01:36;;;;;;;43.15;13.48;;;-0.70;99.90;;;;;;6183481;23;20572;-76
2022/12/17 21:04:07;;;;;;;41.42;14.52;;;-0.70;99.90;;;;;;6183062;23;20020;-76
2022/12/17 21:06:37;;;;;;;48.17;17.25;;;-0.70;99.90;;;;;;6156424;23;20017;-76
2022/12/17 21:09:05;;;;;;;43.17;14.48;;;-0.70;99.90;;;;;;6129379;23;20017;-76
2022/12/17 21:11:35;;;;;;;45.90;14.82;;;-0.70;99.90;;;;;;6179847;23;20025;-76
2022/12/17 21:14:04;;;;;;;45.55;14.95;;;-0.80;99.90;;;;;;6133202;23;20470;-76
2022/12/17 21:16:34;;;;;;;42.00;12.32;;;-0.80;99.90;;;;;;6156029;23;20040;-76
2022/12/17 21:19:05;;;;;;;45.30;14.30;;;-0.80;99.90;;;;;;6155550;23;20318;-76
2022/12/17 21:21:36;;;;;;;45.25;15.27;;;-0.70;99.90;;;;;;6131304;23;20487;-76
2022/12/17 21:24:05;;;;;;;44.70;12.68;;;-0.80;99.90;;;;;;6157669;23;20017;-76
2022/12/17 21:26:38;;;;;;;51.97;14.52;;;-0.80;99.90;;;;;;6183225;23;20040;-75
2022/12/17 21:29:07;;;;;;;47.05;13.75;;;-0.80;99.90;;;;;;6156759;23;20021;-75
2022/12/17 21:31:39;;;;;;;44.83;14.13;;;-0.70;99.90;;;;;;6134252;23;20020;-76
2022/12/17 21:34:11;;;;;;;47.55;14.77;;;-0.80;99.90;;;;;;6185142;23;20433;-75
2022/12/17 21:36:38;;;;;;;51.70;16.88;;;-0.80;99.90;;;;;;6185037;23;20029;-75
2022/12/17 21:39:07;;;;;;;56.83;18.08;;;-0.80;99.90;;;;;;6135320;23;20021;-76
2022/12/17 21:43:00;;;;;;;50.33;15.63;;;-0.80;99.90;;;;;;6159711;23;20048;-78
2022/12/17 21:44:34;;;;;;;53.10;17.45;;;0.50;99.90;;;;;;6158350;23;20028;-76
2022/12/17 21:47:01;;;;;;;47.65;16.10;;;-0.80;99.90;;;;;;6159824;23;20013;-75
2022/12/17 21:49:28;;;;;;;46.40;14.57;;;-0.80;99.90;;;;;;6136178;23;20017;-75
2022/12/17 21:51:58;;;;;;;53.10;17.02;;;-0.80;99.90;;;;;;6184038;23;20056;-75
2022/12/17 21:54:25;;;;;;;46.33;15.02;;;-0.90;99.90;;;;;;6159929;23;20334;-75
2022/12/17 21:56:52;;;;;;;51.20;18.80;;;-0.90;99.90;;;;;;6184772;23;20050;-75
2022/12/17 21:59:19;;;;;;;55.40;19.08;;;-0.90;99.90;;;;;;6183902;23;20032;-75
2022/12/17 22:01:46;;;;;;;56.95;19.52;;;-0.90;99.90;;;;;;6184429;23;20071;-75
2022/12/17 22:04:14;;;;;;;52.25;20.15;;;-0.90;99.90;;;;;;6160155;23;20123;-75
2022/12/17 22:06:42;;;;;;;59.33;21.73;;;-0.90;99.90;;;;;;6159228;23;20048;-75
2022/12/17 22:09:28;;;;;;;57.80;20.92;;;-0.90;99.90;;;;;;6157060;23;20083;-75
2022/12/17 22:15:00;;;;;;;51.85;16.85;;;-0.90;99.90;;;;;;6182009;23;20966;-75
2022/12/17 22:17:28;;;;;;;43.50;13.20;;;-0.90;99.90;;;;;;6158638;23;20105;-75
2022/12/17 22:19:55;;;;;;;38.05;13.05;;;-0.90;99.90;;;;;;6157951;23;20483;-75
2022/12/17 22:22:22;;;;;;;48.85;15.88;;;-0.90;99.90;;;;;;6158415;23;20024;-75
2022/12/17 22:24:49;;;;;;;47.63;14.35;;;-1.00;99.90;;;;;;6161031;23;20055;-75
2022/12/17 22:27:16;;;;;;;40.72;14.50;;;-1.00;99.90;;;;;;6160401;23;20048;-77
2022/12/17 22:35:35;;;;;;;41.72;11.82;;;-1.30;99.90;;;;;;6183711;23;20028;-74
2022/12/17 22:38:22;;;;;;;38.67;10.98;;;-1.00;99.90;;;;;;6159577;23;20088;-75
2022/12/17 22:43:28;;;;;;;43.22;13.50;;;-1.00;99.90;;;;;;6137622;23;20029;-75
2022/12/17 22:44:16;;;;;;;40.53;12.90;;;-1.00;99.90;;;;;;6183071;23;20511;-75
2022/12/17 22:47:04;;;;;;;36.75;11.48;;;-1.00;99.90;;;;;;6182957;23;20013;-75
2022/12/17 22:49:31;;;;;;;48.80;12.23;;;-0.90;99.90;;;;;;6155984;23;20667;-75
2022/12/17 22:51:58;;;;;;;34.08;11.82;;;-1.00;99.90;;;;;;6156930;23;20033;-75
2022/12/17 22:54:26;;;;;;;46.50;14.00;;;-0.90;99.90;;;;;;6159557;23;20456;-75
2022/12/17 22:56:53;;;;;;;58.85;17.58;;;-1.00;99.90;;;;;;6158382;23;20025;-75
2022/12/17 22:59:40;;;;;;;64.22;17.65;;;-1.00;99.90;;;;;;6158838;23;20025;-75
2022/12/17 23:02:09;;;;;;;63.13;17.85;;;-1.00;99.90;;;;;;6183684;23;20052;-75
2022/12/17 23:04:36;;;;;;;54.92;16.42;;;-1.00;99.90;;;;;;6158939;23;20035;-77
2022/12/17 23:07:03;;;;;;;68.30;20.08;;;-1.00;99.90;;;;;;6184032;23;20017;-75
2022/12/17 23:09:30;;;;;;;54.33;16.88;;;-1.00;99.90;;;;;;6160059;23;20028;-75
2022/12/17 23:12:49;;;;;;;57.35;18.40;;;-1.00;99.90;;;;;;6158051;23;20024;-75
2022/12/17 23:14:44;;;;;;;57.85;19.35;;;-1.00;99.90;;;;;;6183619;23;20024;-75
2022/12/17 23:17:11;;;;;;;55.03;17.75;;;-1.00;99.90;;;;;;6158993;23;20048;-75
2022/12/17 23:19:38;;;;;;;58.05;18.10;;;-1.00;99.90;;;;;;6157963;23;20517;-75
2022/12/17 23:22:06;;;;;;;49.70;16.55;;;-1.00;99.90;;;;;;6158708;23;20031;-75
2022/12/17 23:24:33;;;;;;;49.20;17.60;;;-1.00;99.90;;;;;;6183319;23;20508;-75
2022/12/17 23:27:00;;;;;;;55.35;16.10;;;-1.00;99.90;;;;;;6157272;23;20025;-75
2022/12/17 23:29:28;;;;;;;49.67;14.95;;;-0.90;99.90;;;;;;6181338;23;20017;-75
2022/12/17 23:31:55;;;;;;;59.58;19.02;;;-1.00;99.90;;;;;;6183611;23;20356;-75
2022/12/17 23:34:23;;;;;;;53.92;15.68;;;-1.00;99.90;;;;;;6183776;23;20084;-77
2022/12/17 23:36:50;;;;;;;48.33;14.63;;;-1.00;99.90;;;;;;6182586;23;20353;-75
2022/12/17 23:39:17;;;;;;;45.67;13.27;;;-1.00;99.90;;;;;;6158434;23;20072;-75
2022/12/17 23:41:44;;;;;;;57.72;16.80;;;-1.10;99.90;;;;;;6185112;23;20503;-75
2022/12/17 23:44:11;;;;;;;48.92;14.80;;;-1.00;99.90;;;;;;6158004;23;20028;-75
2022/12/17 23:46:38;;;;;;;54.80;15.27;;;-1.00;99.90;;;;;;6181439;23;20021;-75
2022/12/17 23:49:06;;;;;;;47.78;14.90;;;-1.00;99.90;;;;;;6155385;23;20021;-75
2022/12/17 23:51:33;;;;;;;50.22;14.77;;;-1.00;99.90;;;;;;6184796;23;20020;-75
2022/12/17 23:54:00;;;;;;;45.85;14.07;;;-1.00;99.90;;;;;;6158859;23;20750;-75
2022/12/17 23:56:27;;;;;;;42.70;14.13;;;-0.90;99.90;;;;;;6134321;23;20021;-75
2022/12/17 23:58:57;;;;;;;47.13;13.85;;;-1.00;99.90;;;;;;6183094;23;20025;-75
